sensor_id;sensor_type;location;lat;lon;timestamp;P1;durP1;ratioP1;P2;durP2;ratioP2
7213;SDS011;3648;50.614;13.830;2022-10-17T00:01:39;13.80;;;11.17;;
7213;SDS011;3648;50.614;13.830;2022-10-17T00:04:05;14.30;;;10.90;;
7213;SDS011;3648;50.614;13.830;2022-10-17T00:06:32;12.77;;;10.37;;
7213;SDS011;3648;50.614;13.830;2022-10-17T00:09:01;13.17;;;10.73;;
7213;SDS011;3648;50.614;13.830;2022-10-17T00:11:28;14.07;;;11.70;;
7213;SDS011;3648;50.614;13.830;2022-10-17T00:13:55;15.37;;;10.97;;
7213;SDS011;3648;50.614;13.830;2022-10-17T00:16:23;14.17;;;11.10;;
7213;SDS011;3648;50.614;13.830;2022-10-17T00:18:51;16.10;;;11.33;;
7213;SDS011;3648;50.614;13.830;2022-10-17T00:21:18;15.00;;;12.10;;
7213;SDS011;3648;50.614;13.830;2022-10-17T00:23:46;15.00;;;11.90;;
7213;SDS011;3648;50.614;13.830;2022-10-17T00:26:14;17.47;;;11.83;;
7213;SDS011;3648;50.614;13.830;2022-10-17T00:28:44;14.43;;;11.70;;
7213;SDS011;3648;50.614;13.830;2022-10-17T00:31:12;13.80;;;11.77;;
7213;SDS011;3648;50.614;13.830;2022-10-17T00:33:39;19.07;;;13.23;;
7213;SDS011;3648;50.614;13.830;2022-10-17T00:36:08;12.47;;;10.97;;
7213;SDS011;3648;50.614;13.830;2022-10-17T00:38:36;17.20;;;12.37;;
7213;SDS011;3648;50.614;13.830;2022-10-17T00:41:03;17.47;;;12.17;;
7213;SDS011;3648;50.614;13.830;2022-10-17T00:46:19;15.60;;;11.53;;
7213;SDS011;3648;50.614;13.830;2022-10-17T00:48:47;15.23;;;11.13;;
7213;SDS011;3648;50.614;13.830;2022-10-17T00:51:16;14.27;;;11.73;;
7213;SDS011;3648;50.614;13.830;2022-10-17T00:53:45;16.97;;;11.97;;
7213;SDS011;3648;50.614;13.830;2022-10-17T00:56:13;12.90;;;11.10;;
7213;SDS011;3648;50.614;13.830;2022-10-17T00:58:41;13.83;;;10.93;;
7213;SDS011;3648;50.614;13.830;2022-10-17T01:01:09;14.03;;;10.97;;
7213;SDS011;3648;50.614;13.830;2022-10-17T01:03:36;11.90;;;10.33;;
7213;SDS011;3648;50.614;13.830;2022-10-17T01:06:04;14.23;;;11.27;;
7213;SDS011;3648;50.614;13.830;2022-10-17T01:08:31;13.60;;;11.20;;
7213;SDS011;3648;50.614;13.830;2022-10-17T01:11:00;13.40;;;11.40;;
7213;SDS011;3648;50.614;13.830;2022-10-17T01:13:41;17.43;;;12.57;;
7213;SDS011;3648;50.614;13.830;2022-10-17T01:16:12;14.50;;;12.63;;
7213;SDS011;3648;50.614;13.830;2022-10-17T01:18:50;14.27;;;10.87;;
7213;SDS011;3648;50.614;13.830;2022-10-17T01:21:34;14.50;;;11.57;;
7213;SDS011;3648;50.614;13.830;2022-10-17T01:24:15;15.20;;;11.07;;
7213;SDS011;3648;50.614;13.830;2022-10-17T01:27:09;14.93;;;10.80;;
7213;SDS011;3648;50.614;13.830;2022-10-17T01:33:00;13.60;;;10.23;;
7213;SDS011;3648;50.614;13.830;2022-10-17T01:35:34;15.73;;;10.33;;
7213;SDS011;3648;50.614;13.830;2022-10-17T01:38:07;14.17;;;11.30;;
7213;SDS011;3648;50.614;13.830;2022-10-17T01:40:38;14.60;;;11.07;;
7213;SDS011;3648;50.614;13.830;2022-10-17T01:43:10;13.10;;;10.60;;
7213;SDS011;3648;50.614;13.830;2022-10-17T01:45:42;12.87;;;10.93;;
7213;SDS011;3648;50.614;13.830;2022-10-17T01:48:17;17.20;;;11.47;;
7213;SDS011;3648;50.614;13.830;2022-10-17T01:50:49;15.27;;;11.80;;
7213;SDS011;3648;50.614;13.830;2022-10-17T01:53:21;17.10;;;12.80;;
7213;SDS011;3648;50.614;13.830;2022-10-17T01:55:50;14.57;;;11.77;;
7213;SDS011;3648;50.614;13.830;2022-10-17T01:58:22;14.63;;;11.60;;
7213;SDS011;3648;50.614;13.830;2022-10-17T02:00:52;16.23;;;12.73;;
7213;SDS011;3648;50.614;13.830;2022-10-17T02:03:22;15.07;;;12.40;;
7213;SDS011;3648;50.614;13.830;2022-10-17T02:05:52;18.07;;;13.93;;
7213;SDS011;3648;50.614;13.830;2022-10-17T02:08:25;15.73;;;12.77;;
7213;SDS011;3648;50.614;13.830;2022-10-17T02:10:55;16.70;;;12.57;;
7213;SDS011;3648;50.614;13.830;2022-10-17T02:13:30;14.93;;;11.87;;
7213;SDS011;3648;50.614;13.830;2022-10-17T02:16:11;16.30;;;13.20;;
7213;SDS011;3648;50.614;13.830;2022-10-17T02:18:49;17.97;;;14.27;;
7213;SDS011;3648;50.614;13.830;2022-10-17T02:21:32;15.93;;;13.60;;
7213;SDS011;3648;50.614;13.830;2022-10-17T02:24:10;16.57;;;13.67;;
7213;SDS011;3648;50.614;13.830;2022-10-17T02:26:43;16.37;;;13.00;;
7213;SDS011;3648;50.614;13.830;2022-10-17T02:29:16;16.60;;;12.83;;
7213;SDS011;3648;50.614;13.830;2022-10-17T02:31:47;18.07;;;14.93;;
7213;SDS011;3648;50.614;13.830;2022-10-17T02:34:20;18.83;;;14.80;;
7213;SDS011;3648;50.614;13.830;2022-10-17T02:36:51;19.10;;;14.87;;
7213;SDS011;3648;50.614;13.830;2022-10-17T02:39:21;18.50;;;14.57;;
7213;SDS011;3648;50.614;13.830;2022-10-17T02:41:50;29.87;;;19.57;;
7213;SDS011;3648;50.614;13.830;2022-10-17T02:44:19;25.33;;;16.07;;
7213;SDS011;3648;50.614;13.830;2022-10-17T02:46:48;19.43;;;14.60;;
7213;SDS011;3648;50.614;13.830;2022-10-17T02:49:21;28.43;;;14.17;;
7213;SDS011;3648;50.614;13.830;2022-10-17T02:51:51;27.07;;;13.40;;
7213;SDS011;3648;50.614;13.830;2022-10-17T02:54:23;16.67;;;12.63;;
7213;SDS011;3648;50.614;13.830;2022-10-17T02:56:59;12.20;;;10.73;;
7213;SDS011;3648;50.614;13.830;2022-10-17T02:59:30;14.67;;;11.60;;
7213;SDS011;3648;50.614;13.830;2022-10-17T03:02:01;18.17;;;13.27;;
7213;SDS011;3648;50.614;13.830;2022-10-17T03:04:30;15.47;;;13.27;;
7213;SDS011;3648;50.614;13.830;2022-10-17T03:06:57;17.03;;;13.50;;
7213;SDS011;3648;50.614;13.830;2022-10-17T03:09:26;18.80;;;13.37;;
7213;SDS011;3648;50.614;13.830;2022-10-17T03:11:53;18.77;;;13.17;;
7213;SDS011;3648;50.614;13.830;2022-10-17T03:14:20;21.23;;;13.67;;
7213;SDS011;3648;50.614;13.830;2022-10-17T03:16:47;20.17;;;13.57;;
7213;SDS011;3648;50.614;13.830;2022-10-17T03:19:14;16.43;;;12.07;;
7213;SDS011;3648;50.614;13.830;2022-10-17T03:21:42;18.03;;;13.57;;
7213;SDS011;3648;50.614;13.830;2022-10-17T03:24:09;16.43;;;12.70;;
7213;SDS011;3648;50.614;13.830;2022-10-17T03:26:36;15.97;;;12.13;;
7213;SDS011;3648;50.614;13.830;2022-10-17T03:29:03;18.07;;;13.70;;
7213;SDS011;3648;50.614;13.830;2022-10-17T03:31:30;17.60;;;12.50;;
7213;SDS011;3648;50.614;13.830;2022-10-17T03:33:56;17.17;;;12.40;;
7213;SDS011;3648;50.614;13.830;2022-10-17T03:36:23;15.40;;;11.97;;
7213;SDS011;3648;50.614;13.830;2022-10-17T03:38:53;18.30;;;13.03;;
7213;SDS011;3648;50.614;13.830;2022-10-17T03:41:20;17.30;;;13.57;;
7213;SDS011;3648;50.614;13.830;2022-10-17T03:43:47;21.80;;;16.13;;
7213;SDS011;3648;50.614;13.830;2022-10-17T03:46:14;29.80;;;19.17;;
7213;SDS011;3648;50.614;13.830;2022-10-17T03:48:41;30.80;;;20.83;;
7213;SDS011;3648;50.614;13.830;2022-10-17T03:51:08;23.97;;;17.37;;
7213;SDS011;3648;50.614;13.830;2022-10-17T03:53:35;22.43;;;15.67;;
7213;SDS011;3648;50.614;13.830;2022-10-17T03:56:11;31.47;;;19.47;;
7213;SDS011;3648;50.614;13.830;2022-10-17T03:58:39;51.90;;;28.07;;
7213;SDS011;3648;50.614;13.830;2022-10-17T04:01:07;32.97;;;20.43;;
7213;SDS011;3648;50.614;13.830;2022-10-17T04:03:36;30.33;;;20.63;;
7213;SDS011;3648;50.614;13.830;2022-10-17T04:06:04;26.83;;;18.47;;
7213;SDS011;3648;50.614;13.830;2022-10-17T04:08:31;23.63;;;16.30;;
7213;SDS011;3648;50.614;13.830;2022-10-17T04:10:59;21.50;;;15.30;;
7213;SDS011;3648;50.614;13.830;2022-10-17T04:13:29;21.23;;;16.13;;
7213;SDS011;3648;50.614;13.830;2022-10-17T04:15:56;20.53;;;15.93;;
7213;SDS011;3648;50.614;13.830;2022-10-17T04:18:24;20.27;;;15.90;;
7213;SDS011;3648;50.614;13.830;2022-10-17T04:20:52;23.67;;;15.67;;
7213;SDS011;3648;50.614;13.830;2022-10-17T04:23:19;19.93;;;15.50;;
7213;SDS011;3648;50.614;13.830;2022-10-17T04:25:46;21.73;;;15.63;;
7213;SDS011;3648;50.614;13.830;2022-10-17T04:28:14;28.13;;;17.13;;
7213;SDS011;3648;50.614;13.830;2022-10-17T04:30:42;24.50;;;16.73;;
7213;SDS011;3648;50.614;13.830;2022-10-17T04:33:09;27.10;;;18.40;;
7213;SDS011;3648;50.614;13.830;2022-10-17T04:35:36;32.77;;;19.43;;
7213;SDS011;3648;50.614;13.830;2022-10-17T04:38:03;41.03;;;20.47;;
7213;SDS011;3648;50.614;13.830;2022-10-17T04:40:30;34.00;;;21.00;;
7213;SDS011;3648;50.614;13.830;2022-10-17T04:42:57;31.40;;;19.97;;
7213;SDS011;3648;50.614;13.830;2022-10-17T04:45:24;32.57;;;19.57;;
7213;SDS011;3648;50.614;13.830;2022-10-17T04:47:52;29.53;;;17.47;;
7213;SDS011;3648;50.614;13.830;2022-10-17T04:50:19;29.57;;;17.70;;
7213;SDS011;3648;50.614;13.830;2022-10-17T04:52:46;25.83;;;16.53;;
7213;SDS011;3648;50.614;13.830;2022-10-17T04:55:13;27.93;;;17.03;;
7213;SDS011;3648;50.614;13.830;2022-10-17T04:57:40;31.80;;;18.70;;
7213;SDS011;3648;50.614;13.830;2022-10-17T05:00:07;30.07;;;17.93;;
7213;SDS011;3648;50.614;13.830;2022-10-17T05:02:35;27.03;;;17.30;;
7213;SDS011;3648;50.614;13.830;2022-10-17T05:05:03;31.50;;;19.47;;
7213;SDS011;3648;50.614;13.830;2022-10-17T05:07:30;25.17;;;15.97;;
7213;SDS011;3648;50.614;13.830;2022-10-17T05:09:57;29.03;;;17.83;;
7213;SDS011;3648;50.614;13.830;2022-10-17T05:12:24;48.73;;;20.00;;
7213;SDS011;3648;50.614;13.830;2022-10-17T05:14:51;31.47;;;18.07;;
7213;SDS011;3648;50.614;13.830;2022-10-17T05:17:18;26.07;;;16.77;;
7213;SDS011;3648;50.614;13.830;2022-10-17T05:19:45;37.30;;;18.13;;
7213;SDS011;3648;50.614;13.830;2022-10-17T05:22:13;26.43;;;17.57;;
7213;SDS011;3648;50.614;13.830;2022-10-17T05:24:40;29.20;;;18.30;;
7213;SDS011;3648;50.614;13.830;2022-10-17T05:27:07;26.40;;;17.77;;
7213;SDS011;3648;50.614;13.830;2022-10-17T05:29:34;27.13;;;16.87;;
7213;SDS011;3648;50.614;13.830;2022-10-17T05:32:01;30.13;;;18.03;;
7213;SDS011;3648;50.614;13.830;2022-10-17T05:34:28;33.67;;;19.63;;
7213;SDS011;3648;50.614;13.830;2022-10-17T05:36:56;38.47;;;21.17;;
7213;SDS011;3648;50.614;13.830;2022-10-17T05:39:24;32.63;;;19.90;;
7213;SDS011;3648;50.614;13.830;2022-10-17T05:41:51;39.53;;;23.87;;
7213;SDS011;3648;50.614;13.830;2022-10-17T05:44:18;37.37;;;24.90;;
7213;SDS011;3648;50.614;13.830;2022-10-17T05:46:46;39.03;;;23.37;;
7213;SDS011;3648;50.614;13.830;2022-10-17T05:49:14;34.57;;;19.60;;
7213;SDS011;3648;50.614;13.830;2022-10-17T05:51:41;33.67;;;20.13;;
7213;SDS011;3648;50.614;13.830;2022-10-17T05:54:08;45.97;;;25.07;;
7213;SDS011;3648;50.614;13.830;2022-10-17T05:56:36;41.43;;;27.10;;
7213;SDS011;3648;50.614;13.830;2022-10-17T05:59:03;39.73;;;24.47;;
7213;SDS011;3648;50.614;13.830;2022-10-17T06:01:30;43.60;;;23.00;;
7213;SDS011;3648;50.614;13.830;2022-10-17T06:03:58;36.23;;;23.70;;
7213;SDS011;3648;50.614;13.830;2022-10-17T06:06:25;35.33;;;20.67;;
7213;SDS011;3648;50.614;13.830;2022-10-17T06:08:52;37.17;;;21.13;;
7213;SDS011;3648;50.614;13.830;2022-10-17T06:11:19;33.13;;;21.63;;
7213;SDS011;3648;50.614;13.830;2022-10-17T06:13:47;36.87;;;23.30;;
7213;SDS011;3648;50.614;13.830;2022-10-17T06:16:15;31.47;;;21.00;;
7213;SDS011;3648;50.614;13.830;2022-10-17T06:18:42;37.87;;;21.13;;
7213;SDS011;3648;50.614;13.830;2022-10-17T06:21:10;29.70;;;19.90;;
7213;SDS011;3648;50.614;13.830;2022-10-17T06:23:37;32.70;;;20.07;;
7213;SDS011;3648;50.614;13.830;2022-10-17T06:26:05;31.70;;;19.70;;
7213;SDS011;3648;50.614;13.830;2022-10-17T06:28:32;31.93;;;19.97;;
7213;SDS011;3648;50.614;13.830;2022-10-17T06:31:04;34.10;;;21.20;;
7213;SDS011;3648;50.614;13.830;2022-10-17T06:33:31;36.33;;;20.97;;
7213;SDS011;3648;50.614;13.830;2022-10-17T06:35:58;33.17;;;22.93;;
7213;SDS011;3648;50.614;13.830;2022-10-17T06:38:25;37.13;;;23.93;;
7213;SDS011;3648;50.614;13.830;2022-10-17T06:40:52;39.07;;;23.57;;
7213;SDS011;3648;50.614;13.830;2022-10-17T06:43:21;36.80;;;22.27;;
7213;SDS011;3648;50.614;13.830;2022-10-17T06:45:48;35.27;;;22.43;;
7213;SDS011;3648;50.614;13.830;2022-10-17T06:48:17;39.73;;;25.40;;
7213;SDS011;3648;50.614;13.830;2022-10-17T06:50:44;38.90;;;25.27;;
7213;SDS011;3648;50.614;13.830;2022-10-17T06:53:10;41.83;;;28.30;;
7213;SDS011;3648;50.614;13.830;2022-10-17T06:55:37;38.57;;;26.73;;
7213;SDS011;3648;50.614;13.830;2022-10-17T06:58:04;36.93;;;27.27;;
7213;SDS011;3648;50.614;13.830;2022-10-17T07:00:31;42.33;;;28.17;;
7213;SDS011;3648;50.614;13.830;2022-10-17T07:02:58;39.70;;;28.07;;
7213;SDS011;3648;50.614;13.830;2022-10-17T07:05:26;40.47;;;29.57;;
7213;SDS011;3648;50.614;13.830;2022-10-17T07:07:53;43.43;;;30.40;;
7213;SDS011;3648;50.614;13.830;2022-10-17T07:10:20;39.90;;;29.43;;
7213;SDS011;3648;50.614;13.830;2022-10-17T07:12:47;40.40;;;30.37;;
7213;SDS011;3648;50.614;13.830;2022-10-17T07:15:14;40.80;;;30.77;;
7213;SDS011;3648;50.614;13.830;2022-10-17T07:17:41;40.90;;;29.57;;
7213;SDS011;3648;50.614;13.830;2022-10-17T07:20:09;44.30;;;30.27;;
7213;SDS011;3648;50.614;13.830;2022-10-17T07:22:37;41.70;;;30.73;;
7213;SDS011;3648;50.614;13.830;2022-10-17T07:25:05;45.03;;;31.80;;
7213;SDS011;3648;50.614;13.830;2022-10-17T07:27:32;43.43;;;30.97;;
7213;SDS011;3648;50.614;13.830;2022-10-17T07:29:59;48.67;;;33.77;;
7213;SDS011;3648;50.614;13.830;2022-10-17T07:32:26;48.63;;;35.27;;
7213;SDS011;3648;50.614;13.830;2022-10-17T07:34:53;51.87;;;36.17;;
7213;SDS011;3648;50.614;13.830;2022-10-17T07:37:20;52.30;;;37.20;;
7213;SDS011;3648;50.614;13.830;2022-10-17T07:39:48;55.47;;;37.93;;
7213;SDS011;3648;50.614;13.830;2022-10-17T07:42:15;56.80;;;38.73;;
7213;SDS011;3648;50.614;13.830;2022-10-17T07:44:42;54.53;;;39.20;;
7213;SDS011;3648;50.614;13.830;2022-10-17T07:47:11;56.57;;;39.37;;
7213;SDS011;3648;50.614;13.830;2022-10-17T07:49:38;56.27;;;39.43;;
7213;SDS011;3648;50.614;13.830;2022-10-17T07:52:08;54.93;;;37.13;;
7213;SDS011;3648;50.614;13.830;2022-10-17T07:54:35;58.13;;;39.40;;
7213;SDS011;3648;50.614;13.830;2022-10-17T07:57:03;55.53;;;38.83;;
7213;SDS011;3648;50.614;13.830;2022-10-17T07:59:31;55.70;;;38.43;;
7213;SDS011;3648;50.614;13.830;2022-10-17T08:01:58;56.70;;;38.93;;
7213;SDS011;3648;50.614;13.830;2022-10-17T08:04:25;54.30;;;38.30;;
7213;SDS011;3648;50.614;13.830;2022-10-17T08:06:52;54.00;;;37.87;;
7213;SDS011;3648;50.614;13.830;2022-10-17T08:09:19;59.07;;;38.40;;
7213;SDS011;3648;50.614;13.830;2022-10-17T08:11:46;53.07;;;38.43;;
7213;SDS011;3648;50.614;13.830;2022-10-17T08:14:15;54.50;;;37.70;;
7213;SDS011;3648;50.614;13.830;2022-10-17T08:16:42;53.47;;;38.17;;
7213;SDS011;3648;50.614;13.830;2022-10-17T08:19:09;59.83;;;39.70;;
7213;SDS011;3648;50.614;13.830;2022-10-17T08:21:37;51.30;;;35.87;;
7213;SDS011;3648;50.614;13.830;2022-10-17T08:24:05;53.20;;;35.67;;
7213;SDS011;3648;50.614;13.830;2022-10-17T08:26:32;49.90;;;36.30;;
7213;SDS011;3648;50.614;13.830;2022-10-17T08:28:59;51.83;;;36.97;;
7213;SDS011;3648;50.614;13.830;2022-10-17T08:31:28;45.93;;;35.27;;
7213;SDS011;3648;50.614;13.830;2022-10-17T08:33:55;46.63;;;34.37;;
7213;SDS011;3648;50.614;13.830;2022-10-17T08:36:22;47.53;;;35.97;;
7213;SDS011;3648;50.614;13.830;2022-10-17T08:38:49;53.53;;;37.97;;
7213;SDS011;3648;50.614;13.830;2022-10-17T08:41:19;49.53;;;37.03;;
7213;SDS011;3648;50.614;13.830;2022-10-17T08:44:11;49.07;;;35.20;;
7213;SDS011;3648;50.614;13.830;2022-10-17T08:46:43;47.17;;;36.27;;
7213;SDS011;3648;50.614;13.830;2022-10-17T08:49:15;47.00;;;36.00;;
7213;SDS011;3648;50.614;13.830;2022-10-17T08:51:50;49.07;;;36.63;;
7213;SDS011;3648;50.614;13.830;2022-10-17T08:54:21;55.27;;;36.90;;
7213;SDS011;3648;50.614;13.830;2022-10-17T08:56:53;51.30;;;35.27;;
7213;SDS011;3648;50.614;13.830;2022-10-17T08:59:22;48.73;;;35.93;;
7213;SDS011;3648;50.614;13.830;2022-10-17T09:01:55;49.13;;;35.90;;
7213;SDS011;3648;50.614;13.830;2022-10-17T09:04:36;48.10;;;36.63;;
7213;SDS011;3648;50.614;13.830;2022-10-17T09:07:12;47.43;;;36.60;;
7213;SDS011;3648;50.614;13.830;2022-10-17T09:09:46;49.10;;;36.23;;
7213;SDS011;3648;50.614;13.830;2022-10-17T09:12:21;45.80;;;35.43;;
7213;SDS011;3648;50.614;13.830;2022-10-17T09:17:52;45.00;;;33.60;;
7213;SDS011;3648;50.614;13.830;2022-10-17T09:20:23;45.27;;;32.83;;
7213;SDS011;3648;50.614;13.830;2022-10-17T09:22:54;43.33;;;33.83;;
7213;SDS011;3648;50.614;13.830;2022-10-17T09:25:23;48.50;;;34.00;;
7213;SDS011;3648;50.614;13.830;2022-10-17T09:27:52;46.47;;;35.47;;
7213;SDS011;3648;50.614;13.830;2022-10-17T09:30:27;45.80;;;33.93;;
7213;SDS011;3648;50.614;13.830;2022-10-17T09:33:01;43.13;;;32.97;;
7213;SDS011;3648;50.614;13.830;2022-10-17T09:35:39;39.67;;;32.20;;
7213;SDS011;3648;50.614;13.830;2022-10-17T09:38:11;46.53;;;32.37;;
7213;SDS011;3648;50.614;13.830;2022-10-17T09:40:41;41.47;;;32.10;;
7213;SDS011;3648;50.614;13.830;2022-10-17T09:43:10;39.87;;;32.27;;
7213;SDS011;3648;50.614;13.830;2022-10-17T09:45:42;40.50;;;31.20;;
7213;SDS011;3648;50.614;13.830;2022-10-17T09:48:18;38.93;;;30.43;;
7213;SDS011;3648;50.614;13.830;2022-10-17T09:50:50;41.87;;;31.77;;
7213;SDS011;3648;50.614;13.830;2022-10-17T09:53:19;41.20;;;32.70;;
7213;SDS011;3648;50.614;13.830;2022-10-17T09:55:50;43.93;;;33.77;;
7213;SDS011;3648;50.614;13.830;2022-10-17T09:58:21;41.07;;;31.60;;
7213;SDS011;3648;50.614;13.830;2022-10-17T10:00:48;37.87;;;30.10;;
7213;SDS011;3648;50.614;13.830;2022-10-17T10:03:16;39.17;;;29.70;;
7213;SDS011;3648;50.614;13.830;2022-10-17T10:08:46;40.83;;;30.20;;
7213;SDS011;3648;50.614;13.830;2022-10-17T10:11:15;38.77;;;29.67;;
7213;SDS011;3648;50.614;13.830;2022-10-17T10:13:43;40.67;;;30.53;;
7213;SDS011;3648;50.614;13.830;2022-10-17T10:16:16;40.50;;;31.10;;
7213;SDS011;3648;50.614;13.830;2022-10-17T10:18:47;34.50;;;26.93;;
7213;SDS011;3648;50.614;13.830;2022-10-17T10:21:16;33.43;;;25.37;;
7213;SDS011;3648;50.614;13.830;2022-10-17T10:23:47;38.97;;;27.80;;
7213;SDS011;3648;50.614;13.830;2022-10-17T10:26:31;42.67;;;30.03;;
7213;SDS011;3648;50.614;13.830;2022-10-17T10:29:02;33.73;;;26.03;;
7213;SDS011;3648;50.614;13.830;2022-10-17T10:31:32;37.93;;;28.17;;
7213;SDS011;3648;50.614;13.830;2022-10-17T10:34:19;39.50;;;28.47;;
7213;SDS011;3648;50.614;13.830;2022-10-17T10:36:54;35.23;;;26.80;;
7213;SDS011;3648;50.614;13.830;2022-10-17T10:39:28;38.17;;;27.70;;
7213;SDS011;3648;50.614;13.830;2022-10-17T10:41:58;39.10;;;28.47;;
7213;SDS011;3648;50.614;13.830;2022-10-17T10:44:28;36.40;;;27.00;;
7213;SDS011;3648;50.614;13.830;2022-10-17T10:47:07;36.90;;;27.73;;
7213;SDS011;3648;50.614;13.830;2022-10-17T10:49:42;36.53;;;27.23;;
7213;SDS011;3648;50.614;13.830;2022-10-17T10:52:11;37.93;;;27.23;;
7213;SDS011;3648;50.614;13.830;2022-10-17T10:54:48;36.30;;;27.90;;
7213;SDS011;3648;50.614;13.830;2022-10-17T10:57:20;39.03;;;27.27;;
7213;SDS011;3648;50.614;13.830;2022-10-17T10:59:53;36.63;;;26.70;;
7213;SDS011;3648;50.614;13.830;2022-10-17T11:02:26;34.30;;;26.77;;
7213;SDS011;3648;50.614;13.830;2022-10-17T11:05:00;37.00;;;28.23;;
7213;SDS011;3648;50.614;13.830;2022-10-17T11:07:32;36.03;;;28.10;;
7213;SDS011;3648;50.614;13.830;2022-10-17T11:10:06;37.07;;;28.93;;
7213;SDS011;3648;50.614;13.830;2022-10-17T11:12:38;35.63;;;28.10;;
7213;SDS011;3648;50.614;13.830;2022-10-17T11:15:13;39.70;;;29.47;;
7213;SDS011;3648;50.614;13.830;2022-10-17T11:17:50;35.73;;;27.80;;
7213;SDS011;3648;50.614;13.830;2022-10-17T11:20:25;35.47;;;28.13;;
7213;SDS011;3648;50.614;13.830;2022-10-17T11:23:08;34.57;;;27.33;;
7213;SDS011;3648;50.614;13.830;2022-10-17T11:25:44;39.30;;;28.80;;
7213;SDS011;3648;50.614;13.830;2022-10-17T11:28:13;37.17;;;28.53;;
7213;SDS011;3648;50.614;13.830;2022-10-17T11:30:44;33.53;;;28.47;;
7213;SDS011;3648;50.614;13.830;2022-10-17T11:33:14;36.53;;;30.67;;
7213;SDS011;3648;50.614;13.830;2022-10-17T11:35:46;34.13;;;28.60;;
7213;SDS011;3648;50.614;13.830;2022-10-17T11:38:20;37.27;;;28.47;;
7213;SDS011;3648;50.614;13.830;2022-10-17T11:40:52;36.43;;;29.70;;
7213;SDS011;3648;50.614;13.830;2022-10-17T11:43:24;39.33;;;30.23;;
7213;SDS011;3648;50.614;13.830;2022-10-17T11:45:57;38.30;;;28.90;;
7213;SDS011;3648;50.614;13.830;2022-10-17T11:48:27;35.87;;;28.20;;
7213;SDS011;3648;50.614;13.830;2022-10-17T11:50:59;38.13;;;31.17;;
7213;SDS011;3648;50.614;13.830;2022-10-17T11:53:33;33.70;;;29.10;;
7213;SDS011;3648;50.614;13.830;2022-10-17T11:56:07;36.80;;;31.20;;
7213;SDS011;3648;50.614;13.830;2022-10-17T11:58:38;35.37;;;29.03;;
7213;SDS011;3648;50.614;13.830;2022-10-17T12:01:13;37.37;;;30.40;;
7213;SDS011;3648;50.614;13.830;2022-10-17T12:03:50;38.30;;;31.17;;
7213;SDS011;3648;50.614;13.830;2022-10-17T12:06:30;38.33;;;30.83;;
7213;SDS011;3648;50.614;13.830;2022-10-17T12:09:09;43.90;;;32.50;;
7213;SDS011;3648;50.614;13.830;2022-10-17T12:11:44;41.77;;;30.30;;
7213;SDS011;3648;50.614;13.830;2022-10-17T12:14:37;38.80;;;29.53;;
7213;SDS011;3648;50.614;13.830;2022-10-17T12:17:22;39.27;;;30.20;;
7213;SDS011;3648;50.614;13.830;2022-10-17T12:22:53;40.67;;;32.00;;
7213;SDS011;3648;50.614;13.830;2022-10-17T12:25:22;39.03;;;30.87;;
7213;SDS011;3648;50.614;13.830;2022-10-17T12:28:01;42.40;;;30.77;;
7213;SDS011;3648;50.614;13.830;2022-10-17T12:30:47;37.20;;;29.53;;
7213;SDS011;3648;50.614;13.830;2022-10-17T12:33:16;38.27;;;29.90;;
7213;SDS011;3648;50.614;13.830;2022-10-17T12:42:43;37.23;;;29.13;;
7213;SDS011;3648;50.614;13.830;2022-10-17T12:51:19;36.33;;;29.57;;
7213;SDS011;3648;50.614;13.830;2022-10-17T12:53:48;41.30;;;31.90;;
7213;SDS011;3648;50.614;13.830;2022-10-17T12:56:29;34.80;;;29.60;;
7213;SDS011;3648;50.614;13.830;2022-10-17T12:59:00;38.23;;;30.87;;
7213;SDS011;3648;50.614;13.830;2022-10-17T13:01:36;40.33;;;31.57;;
7213;SDS011;3648;50.614;13.830;2022-10-17T13:04:05;38.07;;;29.87;;
7213;SDS011;3648;50.614;13.830;2022-10-17T13:06:37;37.63;;;29.87;;
7213;SDS011;3648;50.614;13.830;2022-10-17T13:09:14;42.17;;;32.17;;
7213;SDS011;3648;50.614;13.830;2022-10-17T13:11:48;36.83;;;29.17;;
7213;SDS011;3648;50.614;13.830;2022-10-17T13:14:18;38.70;;;31.27;;
7213;SDS011;3648;50.614;13.830;2022-10-17T13:16:50;38.60;;;30.80;;
7213;SDS011;3648;50.614;13.830;2022-10-17T13:19:19;40.37;;;31.10;;
7213;SDS011;3648;50.614;13.830;2022-10-17T13:21:51;35.03;;;28.93;;
7213;SDS011;3648;50.614;13.830;2022-10-17T13:24:22;37.97;;;30.00;;
7213;SDS011;3648;50.614;13.830;2022-10-17T13:26:54;39.07;;;31.00;;
7213;SDS011;3648;50.614;13.830;2022-10-17T13:29:23;37.47;;;29.17;;
7213;SDS011;3648;50.614;13.830;2022-10-17T13:31:53;36.10;;;29.03;;
7213;SDS011;3648;50.614;13.830;2022-10-17T13:34:22;37.47;;;30.33;;
7213;SDS011;3648;50.614;13.830;2022-10-17T13:36:51;37.80;;;29.97;;
7213;SDS011;3648;50.614;13.830;2022-10-17T13:39:21;35.07;;;29.07;;
7213;SDS011;3648;50.614;13.830;2022-10-17T13:41:49;38.37;;;29.17;;
7213;SDS011;3648;50.614;13.830;2022-10-17T13:44:19;37.10;;;30.77;;
7213;SDS011;3648;50.614;13.830;2022-10-17T13:46:49;39.80;;;32.00;;
7213;SDS011;3648;50.614;13.830;2022-10-17T13:49:18;44.40;;;31.87;;
7213;SDS011;3648;50.614;13.830;2022-10-17T13:51:48;39.83;;;31.43;;
7213;SDS011;3648;50.614;13.830;2022-10-17T13:54:23;38.70;;;31.23;;
7213;SDS011;3648;50.614;13.830;2022-10-17T13:57:00;41.90;;;32.20;;
7213;SDS011;3648;50.614;13.830;2022-10-17T13:59:30;42.33;;;32.70;;
7213;SDS011;3648;50.614;13.830;2022-10-17T14:02:03;40.83;;;32.30;;
7213;SDS011;3648;50.614;13.830;2022-10-17T14:04:36;41.47;;;33.20;;
7213;SDS011;3648;50.614;13.830;2022-10-17T14:07:03;40.73;;;31.67;;
7213;SDS011;3648;50.614;13.830;2022-10-17T14:09:32;43.13;;;32.50;;
7213;SDS011;3648;50.614;13.830;2022-10-17T14:12:00;40.27;;;33.20;;
7213;SDS011;3648;50.614;13.830;2022-10-17T14:14:28;46.20;;;34.87;;
7213;SDS011;3648;50.614;13.830;2022-10-17T14:16:56;40.57;;;33.20;;
7213;SDS011;3648;50.614;13.830;2022-10-17T14:19:25;42.93;;;33.47;;
7213;SDS011;3648;50.614;13.830;2022-10-17T14:21:54;45.50;;;33.73;;
7213;SDS011;3648;50.614;13.830;2022-10-17T14:24:39;43.10;;;34.47;;
7213;SDS011;3648;50.614;13.830;2022-10-17T14:29:51;45.57;;;34.20;;
7213;SDS011;3648;50.614;13.830;2022-10-17T14:32:19;45.67;;;34.23;;
7213;SDS011;3648;50.614;13.830;2022-10-17T14:34:52;41.33;;;32.63;;
7213;SDS011;3648;50.614;13.830;2022-10-17T14:37:26;46.90;;;35.03;;
7213;SDS011;3648;50.614;13.830;2022-10-17T14:39:58;42.67;;;33.27;;
7213;SDS011;3648;50.614;13.830;2022-10-17T14:42:26;46.87;;;35.27;;
7213;SDS011;3648;50.614;13.830;2022-10-17T14:44:53;45.07;;;35.10;;
7213;SDS011;3648;50.614;13.830;2022-10-17T14:47:26;51.17;;;35.27;;
7213;SDS011;3648;50.614;13.830;2022-10-17T14:50:04;47.53;;;36.50;;
7213;SDS011;3648;50.614;13.830;2022-10-17T14:52:32;48.47;;;36.93;;
7213;SDS011;3648;50.614;13.830;2022-10-17T14:55:12;47.47;;;35.53;;
7213;SDS011;3648;50.614;13.830;2022-10-17T14:57:47;42.87;;;33.83;;
7213;SDS011;3648;50.614;13.830;2022-10-17T15:00:14;40.60;;;33.83;;
7213;SDS011;3648;50.614;13.830;2022-10-17T15:02:42;43.60;;;33.87;;
7213;SDS011;3648;50.614;13.830;2022-10-17T15:05:11;44.77;;;33.37;;
7213;SDS011;3648;50.614;13.830;2022-10-17T15:07:39;40.93;;;33.43;;
7213;SDS011;3648;50.614;13.830;2022-10-17T15:10:08;48.97;;;37.67;;
7213;SDS011;3648;50.614;13.830;2022-10-17T15:12:54;41.77;;;34.43;;
7213;SDS011;3648;50.614;13.830;2022-10-17T15:15:21;44.47;;;36.07;;
7213;SDS011;3648;50.614;13.830;2022-10-17T15:17:47;47.50;;;35.23;;
7213;SDS011;3648;50.614;13.830;2022-10-17T15:20:16;48.43;;;35.97;;
7213;SDS011;3648;50.614;13.830;2022-10-17T15:22:44;44.37;;;35.93;;